sensor_id;sensor_type;location;lat;lon;timestamp;P1;durP1;ratioP1;P2;durP2;ratioP2
11287;SDS011;5700;50.996;7.044;2023-07-30T00:00:30;5.80;;;3.05;;
11287;SDS011;5700;50.996;7.044;2023-07-30T00:03:32;5.38;;;3.05;;
11287;SDS011;5700;50.996;7.044;2023-07-30T00:06:34;10.90;;;3.63;;
11287;SDS011;5700;50.996;7.044;2023-07-30T00:09:35;6.05;;;3.60;;
11287;SDS011;5700;50.996;7.044;2023-07-30T00:12:38;4.82;;;2.80;;
11287;SDS011;5700;50.996;7.044;2023-07-30T00:15:40;6.80;;;2.78;;
11287;SDS011;5700;50.996;7.044;2023-07-30T00:18:42;5.00;;;2.88;;
11287;SDS011;5700;50.996;7.044;2023-07-30T00:21:43;4.80;;;3.22;;
11287;SDS011;5700;50.996;7.044;2023-07-30T00:24:46;5.78;;;3.17;;
11287;SDS011;5700;50.996;7.044;2023-07-30T00:27:50;4.82;;;3.08;;
11287;SDS011;5700;50.996;7.044;2023-07-30T00:30:51;7.20;;;3.75;;
11287;SDS011;5700;50.996;7.044;2023-07-30T00:33:53;5.55;;;3.20;;
11287;SDS011;5700;50.996;7.044;2023-07-30T00:36:55;5.95;;;3.20;;
11287;SDS011;5700;50.996;7.044;2023-07-30T00:39:56;7.07;;;3.47;;
11287;SDS011;5700;50.996;7.044;2023-07-30T00:42:59;5.43;;;3.28;;
11287;SDS011;5700;50.996;7.044;2023-07-30T00:46:01;12.93;;;3.20;;
11287;SDS011;5700;50.996;7.044;2023-07-30T00:49:03;5.95;;;3.05;;
11287;SDS011;5700;50.996;7.044;2023-07-30T00:52:04;7.38;;;3.10;;
11287;SDS011;5700;50.996;7.044;2023-07-30T00:55:07;5.03;;;3.00;;
11287;SDS011;5700;50.996;7.044;2023-07-30T00:58:10;4.60;;;2.85;;
11287;SDS011;5700;50.996;7.044;2023-07-30T01:01:12;8.48;;;3.38;;
11287;SDS011;5700;50.996;7.044;2023-07-30T01:04:14;5.75;;;3.47;;
11287;SDS011;5700;50.996;7.044;2023-07-30T01:07:16;6.07;;;3.03;;
11287;SDS011;5700;50.996;7.044;2023-07-30T01:10:18;6.32;;;3.47;;
11287;SDS011;5700;50.996;7.044;2023-07-30T01:13:23;4.88;;;3.00;;
11287;SDS011;5700;50.996;7.044;2023-07-30T01:16:25;4.70;;;3.10;;
11287;SDS011;5700;50.996;7.044;2023-07-30T01:19:27;5.38;;;3.20;;
11287;SDS011;5700;50.996;7.044;2023-07-30T01:22:30;4.50;;;3.03;;
11287;SDS011;5700;50.996;7.044;2023-07-30T01:25:33;4.68;;;2.92;;
11287;SDS011;5700;50.996;7.044;2023-07-30T01:28:39;6.13;;;2.40;;
11287;SDS011;5700;50.996;7.044;2023-07-30T01:31:45;4.07;;;2.60;;
11287;SDS011;5700;50.996;7.044;2023-07-30T01:34:47;4.38;;;2.72;;
11287;SDS011;5700;50.996;7.044;2023-07-30T01:37:52;4.25;;;2.50;;
11287;SDS011;5700;50.996;7.044;2023-07-30T01:40:54;6.53;;;2.72;;
11287;SDS011;5700;50.996;7.044;2023-07-30T01:43:56;6.60;;;2.75;;
11287;SDS011;5700;50.996;7.044;2023-07-30T01:46:57;4.20;;;2.72;;
11287;SDS011;5700;50.996;7.044;2023-07-30T01:49:59;4.25;;;2.55;;
11287;SDS011;5700;50.996;7.044;2023-07-30T01:53:03;4.70;;;2.53;;
11287;SDS011;5700;50.996;7.044;2023-07-30T01:56:04;4.13;;;2.58;;
11287;SDS011;5700;50.996;7.044;2023-07-30T01:59:06;3.70;;;2.50;;
11287;SDS011;5700;50.996;7.044;2023-07-30T02:02:08;4.30;;;2.80;;
11287;SDS011;5700;50.996;7.044;2023-07-30T02:05:09;4.38;;;2.85;;
11287;SDS011;5700;50.996;7.044;2023-07-30T02:08:12;5.00;;;2.45;;
11287;SDS011;5700;50.996;7.044;2023-07-30T02:11:15;3.83;;;2.63;;
11287;SDS011;5700;50.996;7.044;2023-07-30T02:14:18;4.25;;;2.60;;
11287;SDS011;5700;50.996;7.044;2023-07-30T02:17:19;5.43;;;2.47;;
11287;SDS011;5700;50.996;7.044;2023-07-30T02:20:21;4.57;;;2.60;;
11287;SDS011;5700;50.996;7.044;2023-07-30T02:23:24;5.53;;;2.55;;
11287;SDS011;5700;50.996;7.044;2023-07-30T02:26:26;3.65;;;2.38;;
11287;SDS011;5700;50.996;7.044;2023-07-30T02:29:27;3.70;;;2.38;;
11287;SDS011;5700;50.996;7.044;2023-07-30T02:32:31;8.63;;;2.55;;
11287;SDS011;5700;50.996;7.044;2023-07-30T02:35:33;7.88;;;2.97;;
11287;SDS011;5700;50.996;7.044;2023-07-30T02:38:36;4.55;;;2.30;;
11287;SDS011;5700;50.996;7.044;2023-07-30T02:41:37;4.93;;;2.67;;
11287;SDS011;5700;50.996;7.044;2023-07-30T02:44:39;5.60;;;2.25;;
11287;SDS011;5700;50.996;7.044;2023-07-30T02:47:41;5.40;;;2.58;;
11287;SDS011;5700;50.996;7.044;2023-07-30T02:50:42;5.80;;;2.42;;
11287;SDS011;5700;50.996;7.044;2023-07-30T02:53:45;6.82;;;2.53;;
11287;SDS011;5700;50.996;7.044;2023-07-30T02:56:47;4.30;;;2.40;;
11287;SDS011;5700;50.996;7.044;2023-07-30T02:59:48;5.30;;;2.53;;
11287;SDS011;5700;50.996;7.044;2023-07-30T03:02:50;4.53;;;2.35;;
11287;SDS011;5700;50.996;7.044;2023-07-30T03:05:52;7.00;;;2.70;;
11287;SDS011;5700;50.996;7.044;2023-07-30T03:08:55;5.03;;;2.60;;
11287;SDS011;5700;50.996;7.044;2023-07-30T03:11:57;4.60;;;1.65;;
11287;SDS011;5700;50.996;7.044;2023-07-30T03:14:58;5.38;;;2.40;;
11287;SDS011;5700;50.996;7.044;2023-07-30T03:18:00;6.18;;;2.65;;
11287;SDS011;5700;50.996;7.044;2023-07-30T03:21:02;7.10;;;2.35;;
11287;SDS011;5700;50.996;7.044;2023-07-30T03:24:06;3.78;;;2.20;;
11287;SDS011;5700;50.996;7.044;2023-07-30T03:27:07;6.00;;;2.40;;
11287;SDS011;5700;50.996;7.044;2023-07-30T03:30:09;7.97;;;2.80;;
11287;SDS011;5700;50.996;7.044;2023-07-30T03:33:11;5.82;;;2.50;;
11287;SDS011;5700;50.996;7.044;2023-07-30T03:36:13;8.93;;;2.40;;
11287;SDS011;5700;50.996;7.044;2023-07-30T03:39:17;5.95;;;2.47;;
11287;SDS011;5700;50.996;7.044;2023-07-30T03:42:19;4.35;;;2.45;;
11287;SDS011;5700;50.996;7.044;2023-07-30T03:45:20;4.05;;;2.00;;
11287;SDS011;5700;50.996;7.044;2023-07-30T03:48:22;5.30;;;2.33;;
11287;SDS011;5700;50.996;7.044;2023-07-30T03:51:23;5.68;;;2.40;;
11287;SDS011;5700;50.996;7.044;2023-07-30T03:54:27;6.00;;;2.35;;
11287;SDS011;5700;50.996;7.044;2023-07-30T03:57:28;5.88;;;1.95;;
11287;SDS011;5700;50.996;7.044;2023-07-30T04:00:30;3.15;;;1.92;;
11287;SDS011;5700;50.996;7.044;2023-07-30T04:03:32;7.43;;;2.03;;
11287;SDS011;5700;50.996;7.044;2023-07-30T04:06:34;3.30;;;2.13;;
11287;SDS011;5700;50.996;7.044;2023-07-30T04:09:37;3.50;;;1.80;;
11287;SDS011;5700;50.996;7.044;2023-07-30T04:12:38;3.10;;;1.48;;
11287;SDS011;5700;50.996;7.044;2023-07-30T04:15:40;4.95;;;2.15;;
11287;SDS011;5700;50.996;7.044;2023-07-30T04:18:42;4.57;;;1.80;;
11287;SDS011;5700;50.996;7.044;2023-07-30T04:21:43;3.13;;;1.48;;
11287;SDS011;5700;50.996;7.044;2023-07-30T04:24:46;6.38;;;1.90;;
11287;SDS011;5700;50.996;7.044;2023-07-30T04:27:48;7.57;;;1.90;;
11287;SDS011;5700;50.996;7.044;2023-07-30T04:30:49;6.57;;;1.83;;
11287;SDS011;5700;50.996;7.044;2023-07-30T04:33:51;3.72;;;1.90;;
11287;SDS011;5700;50.996;7.044;2023-07-30T04:36:53;6.57;;;1.55;;
11287;SDS011;5700;50.996;7.044;2023-07-30T04:39:56;3.92;;;1.52;;
11287;SDS011;5700;50.996;7.044;2023-07-30T04:42:58;8.70;;;2.00;;
11287;SDS011;5700;50.996;7.044;2023-07-30T04:45:59;4.82;;;1.70;;
11287;SDS011;5700;50.996;7.044;2023-07-30T04:49:01;6.97;;;2.05;;
11287;SDS011;5700;50.996;7.044;2023-07-30T04:52:03;4.45;;;1.90;;
11287;SDS011;5700;50.996;7.044;2023-07-30T04:55:07;3.15;;;1.60;;
11287;SDS011;5700;50.996;7.044;2023-07-30T04:58:09;7.15;;;1.98;;
11287;SDS011;5700;50.996;7.044;2023-07-30T05:01:11;6.82;;;2.15;;
11287;SDS011;5700;50.996;7.044;2023-07-30T05:04:12;6.00;;;2.03;;
11287;SDS011;5700;50.996;7.044;2023-07-30T05:07:14;3.92;;;2.03;;
11287;SDS011;5700;50.996;7.044;2023-07-30T05:10:17;4.45;;;1.85;;
11287;SDS011;5700;50.996;7.044;2023-07-30T05:13:19;5.03;;;1.95;;
11287;SDS011;5700;50.996;7.044;2023-07-30T05:16:21;3.85;;;1.88;;
11287;SDS011;5700;50.996;7.044;2023-07-30T05:19:22;5.13;;;1.80;;
11287;SDS011;5700;50.996;7.044;2023-07-30T05:22:24;8.57;;;2.35;;
11287;SDS011;5700;50.996;7.044;2023-07-30T05:25:28;5.70;;;2.13;;
11287;SDS011;5700;50.996;7.044;2023-07-30T05:28:29;4.68;;;2.10;;
11287;SDS011;5700;50.996;7.044;2023-07-30T05:31:31;6.22;;;1.95;;
11287;SDS011;5700;50.996;7.044;2023-07-30T05:34:33;7.93;;;2.17;;
11287;SDS011;5700;50.996;7.044;2023-07-30T05:37:35;5.75;;;1.95;;
11287;SDS011;5700;50.996;7.044;2023-07-30T05:40:39;8.55;;;1.70;;
11287;SDS011;5700;50.996;7.044;2023-07-30T05:43:42;4.75;;;1.67;;
11287;SDS011;5700;50.996;7.044;2023-07-30T05:46:44;7.28;;;2.13;;
11287;SDS011;5700;50.996;7.044;2023-07-30T05:49:46;3.33;;;1.45;;
11287;SDS011;5700;50.996;7.044;2023-07-30T05:52:50;4.70;;;1.52;;
11287;SDS011;5700;50.996;7.044;2023-07-30T05:55:55;1.75;;;1.30;;
11287;SDS011;5700;50.996;7.044;2023-07-30T05:58:56;5.10;;;1.70;;
11287;SDS011;5700;50.996;7.044;2023-07-30T06:02:01;3.03;;;1.20;;
11287;SDS011;5700;50.996;7.044;2023-07-30T06:05:03;7.03;;;1.48;;
11287;SDS011;5700;50.996;7.044;2023-07-30T06:08:05;5.95;;;1.35;;
11287;SDS011;5700;50.996;7.044;2023-07-30T06:11:09;4.88;;;1.30;;
11287;SDS011;5700;50.996;7.044;2023-07-30T06:14:10;3.00;;;1.42;;
11287;SDS011;5700;50.996;7.044;2023-07-30T06:17:12;9.88;;;2.35;;
11287;SDS011;5700;50.996;7.044;2023-07-30T06:20:14;4.22;;;1.08;;
11287;SDS011;5700;50.996;7.044;2023-07-30T06:23:16;6.45;;;1.20;;
11287;SDS011;5700;50.996;7.044;2023-07-30T06:26:19;5.28;;;1.30;;
11287;SDS011;5700;50.996;7.044;2023-07-30T06:29:21;3.83;;;1.33;;
11287;SDS011;5700;50.996;7.044;2023-07-30T06:32:23;3.80;;;1.27;;
11287;SDS011;5700;50.996;7.044;2023-07-30T06:35:25;6.75;;;1.92;;
11287;SDS011;5700;50.996;7.044;2023-07-30T06:38:26;3.55;;;1.23;;
11287;SDS011;5700;50.996;7.044;2023-07-30T06:41:29;2.80;;;1.10;;
11287;SDS011;5700;50.996;7.044;2023-07-30T06:44:31;4.75;;;1.38;;
11287;SDS011;5700;50.996;7.044;2023-07-30T06:47:33;6.88;;;1.48;;
11287;SDS011;5700;50.996;7.044;2023-07-30T06:50:34;6.13;;;1.40;;
11287;SDS011;5700;50.996;7.044;2023-07-30T06:53:36;5.43;;;1.20;;
11287;SDS011;5700;50.996;7.044;2023-07-30T06:56:39;3.95;;;1.20;;
11287;SDS011;5700;50.996;7.044;2023-07-30T06:59:41;8.90;;;1.73;;
11287;SDS011;5700;50.996;7.044;2023-07-30T07:02:42;3.30;;;1.15;;
11287;SDS011;5700;50.996;7.044;2023-07-30T07:05:45;5.07;;;1.50;;
11287;SDS011;5700;50.996;7.044;2023-07-30T07:08:46;4.20;;;1.33;;
11287;SDS011;5700;50.996;7.044;2023-07-30T07:11:49;4.05;;;0.90;;
11287;SDS011;5700;50.996;7.044;2023-07-30T07:14:51;5.93;;;1.13;;
11287;SDS011;5700;50.996;7.044;2023-07-30T07:17:53;3.70;;;0.90;;
11287;SDS011;5700;50.996;7.044;2023-07-30T07:20:54;4.00;;;1.20;;
11287;SDS011;5700;50.996;7.044;2023-07-30T07:23:56;3.33;;;1.30;;
11287;SDS011;5700;50.996;7.044;2023-07-30T07:26:59;5.95;;;1.08;;
11287;SDS011;5700;50.996;7.044;2023-07-30T07:30:01;2.17;;;0.90;;
11287;SDS011;5700;50.996;7.044;2023-07-30T07:33:03;3.40;;;1.15;;
11287;SDS011;5700;50.996;7.044;2023-07-30T07:36:06;3.35;;;1.05;;
11287;SDS011;5700;50.996;7.044;2023-07-30T07:39:08;3.45;;;1.08;;
11287;SDS011;5700;50.996;7.044;2023-07-30T07:42:13;3.97;;;0.93;;
11287;SDS011;5700;50.996;7.044;2023-07-30T07:45:14;4.97;;;1.10;;
11287;SDS011;5700;50.996;7.044;2023-07-30T07:48:15;4.13;;;0.93;;
11287;SDS011;5700;50.996;7.044;2023-07-30T07:51:17;4.03;;;1.17;;
11287;SDS011;5700;50.996;7.044;2023-07-30T07:54:18;5.70;;;1.25;;
11287;SDS011;5700;50.996;7.044;2023-07-30T07:57:21;4.88;;;1.33;;
11287;SDS011;5700;50.996;7.044;2023-07-30T08:00:23;5.63;;;1.35;;
11287;SDS011;5700;50.996;7.044;2023-07-30T08:03:25;5.75;;;1.25;;
11287;SDS011;5700;50.996;7.044;2023-07-30T08:06:27;4.28;;;1.20;;
11287;SDS011;5700;50.996;7.044;2023-07-30T08:09:28;3.60;;;1.20;;
11287;SDS011;5700;50.996;7.044;2023-07-30T08:12:32;7.05;;;1.75;;
11287;SDS011;5700;50.996;7.044;2023-07-30T08:15:34;4.97;;;1.23;;
11287;SDS011;5700;50.996;7.044;2023-07-30T08:18:36;7.07;;;1.40;;
11287;SDS011;5700;50.996;7.044;2023-07-30T08:21:38;5.88;;;1.20;;
11287;SDS011;5700;50.996;7.044;2023-07-30T08:24:39;4.13;;;1.13;;
11287;SDS011;5700;50.996;7.044;2023-07-30T08:27:43;7.97;;;1.67;;
11287;SDS011;5700;50.996;7.044;2023-07-30T08:30:44;5.47;;;1.42;;
11287;SDS011;5700;50.996;7.044;2023-07-30T08:33:45;6.35;;;1.55;;
11287;SDS011;5700;50.996;7.044;2023-07-30T08:36:47;6.22;;;1.55;;
11287;SDS011;5700;50.996;7.044;2023-07-30T08:39:49;6.90;;;1.42;;
11287;SDS011;5700;50.996;7.044;2023-07-30T08:42:53;4.70;;;1.70;;
11287;SDS011;5700;50.996;7.044;2023-07-30T08:45:55;6.55;;;1.40;;
11287;SDS011;5700;50.996;7.044;2023-07-30T08:48:57;5.93;;;1.88;;
11287;SDS011;5700;50.996;7.044;2023-07-30T08:51:59;4.88;;;1.58;;
11287;SDS011;5700;50.996;7.044;2023-07-30T08:55:01;9.45;;;2.10;;
11287;SDS011;5700;50.996;7.044;2023-07-30T08:58:05;5.00;;;1.45;;
11287;SDS011;5700;50.996;7.044;2023-07-30T09:01:08;6.78;;;2.05;;
11287;SDS011;5700;50.996;7.044;2023-07-30T09:04:10;5.88;;;1.90;;
11287;SDS011;5700;50.996;7.044;2023-07-30T09:07:12;5.55;;;2.05;;
11287;SDS011;5700;50.996;7.044;2023-07-30T09:10:14;5.05;;;1.50;;
11287;SDS011;5700;50.996;7.044;2023-07-30T09:13:21;8.23;;;2.03;;
11287;SDS011;5700;50.996;7.044;2023-07-30T09:16:24;6.20;;;1.70;;
11287;SDS011;5700;50.996;7.044;2023-07-30T09:19:27;7.85;;;1.77;;
11287;SDS011;5700;50.996;7.044;2023-07-30T09:22:30;6.50;;;1.50;;
11287;SDS011;5700;50.996;7.044;2023-07-30T09:25:33;4.25;;;1.08;;
11287;SDS011;5700;50.996;7.044;2023-07-30T09:28:38;10.10;;;1.73;;
11287;SDS011;5700;50.996;7.044;2023-07-30T09:31:48;8.10;;;1.20;;
11287;SDS011;5700;50.996;7.044;2023-07-30T09:34:51;7.80;;;1.70;;
11287;SDS011;5700;50.996;7.044;2023-07-30T09:37:57;6.40;;;1.20;;
11287;SDS011;5700;50.996;7.044;2023-07-30T09:41:00;6.40;;;1.73;;
11287;SDS011;5700;50.996;7.044;2023-07-30T09:44:03;5.22;;;2.08;;
11287;SDS011;5700;50.996;7.044;2023-07-30T09:47:08;4.95;;;1.25;;
11287;SDS011;5700;50.996;7.044;2023-07-30T09:50:10;7.15;;;1.38;;
11287;SDS011;5700;50.996;7.044;2023-07-30T09:53:12;7.78;;;1.52;;
11287;SDS011;5700;50.996;7.044;2023-07-30T09:56:14;6.38;;;1.20;;
11287;SDS011;5700;50.996;7.044;2023-07-30T09:59:18;5.85;;;1.33;;
11287;SDS011;5700;50.996;7.044;2023-07-30T10:02:19;5.50;;;1.35;;
11287;SDS011;5700;50.996;7.044;2023-07-30T10:05:22;5.03;;;1.40;;
11287;SDS011;5700;50.996;7.044;2023-07-30T10:08:26;4.32;;;1.15;;
11287;SDS011;5700;50.996;7.044;2023-07-30T10:11:30;5.22;;;0.95;;
11287;SDS011;5700;50.996;7.044;2023-07-30T10:14:34;5.85;;;1.50;;
11287;SDS011;5700;50.996;7.044;2023-07-30T10:17:36;2.90;;;0.95;;
11287;SDS011;5700;50.996;7.044;2023-07-30T10:20:38;9.07;;;1.10;;
11287;SDS011;5700;50.996;7.044;2023-07-30T10:23:45;6.80;;;1.52;;
11287;SDS011;5700;50.996;7.044;2023-07-30T10:26:46;5.13;;;1.05;;
11287;SDS011;5700;50.996;7.044;2023-07-30T10:29:50;4.80;;;1.10;;
11287;SDS011;5700;50.996;7.044;2023-07-30T10:33:10;4.53;;;1.10;;
11287;SDS011;5700;50.996;7.044;2023-07-30T10:36:16;5.00;;;1.20;;
11287;SDS011;5700;50.996;7.044;2023-07-30T10:39:19;5.75;;;1.17;;
11287;SDS011;5700;50.996;7.044;2023-07-30T10:42:22;4.18;;;0.93;;
11287;SDS011;5700;50.996;7.044;2023-07-30T10:45:27;3.97;;;1.30;;
11287;SDS011;5700;50.996;7.044;2023-07-30T10:48:30;6.40;;;1.20;;
11287;SDS011;5700;50.996;7.044;2023-07-30T10:51:34;4.38;;;1.15;;
11287;SDS011;5700;50.996;7.044;2023-07-30T10:54:35;4.32;;;1.38;;
11287;SDS011;5700;50.996;7.044;2023-07-30T10:57:37;5.00;;;1.08;;
11287;SDS011;5700;50.996;7.044;2023-07-30T11:00:41;2.85;;;1.10;;
11287;SDS011;5700;50.996;7.044;2023-07-30T11:03:47;10.27;;;1.70;;
11287;SDS011;5700;50.996;7.044;2023-07-30T11:06:50;4.22;;;1.10;;
11287;SDS011;5700;50.996;7.044;2023-07-30T11:09:59;2.88;;;1.00;;
11287;SDS011;5700;50.996;7.044;2023-07-30T11:13:02;5.50;;;0.90;;
11287;SDS011;5700;50.996;7.044;2023-07-30T11:16:05;2.47;;;1.00;;
11287;SDS011;5700;50.996;7.044;2023-07-30T11:19:08;1.63;;;0.60;;
11287;SDS011;5700;50.996;7.044;2023-07-30T11:22:10;3.80;;;1.17;;
11287;SDS011;5700;50.996;7.044;2023-07-30T11:25:15;6.95;;;1.30;;
11287;SDS011;5700;50.996;7.044;2023-07-30T11:31:36;4.55;;;0.88;;
11287;SDS011;5700;50.996;7.044;2023-07-30T11:34:38;6.47;;;1.40;;
11287;SDS011;5700;50.996;7.044;2023-07-30T11:37:40;3.60;;;0.90;;
11287;SDS011;5700;50.996;7.044;2023-07-30T11:40:42;4.25;;;1.35;;
11287;SDS011;5700;50.996;7.044;2023-07-30T11:43:45;4.03;;;0.98;;
11287;SDS011;5700;50.996;7.044;2023-07-30T11:46:54;3.95;;;0.70;;
11287;SDS011;5700;50.996;7.044;2023-07-30T11:49:56;4.07;;;1.08;;
11287;SDS011;5700;50.996;7.044;2023-07-30T11:52:57;3.60;;;1.00;;
11287;SDS011;5700;50.996;7.044;2023-07-30T11:55:59;2.25;;;0.60;;
11287;SDS011;5700;50.996;7.044;2023-07-30T11:59:01;4.20;;;0.93;;
11287;SDS011;5700;50.996;7.044;2023-07-30T12:02:07;3.95;;;1.02;;
11287;SDS011;5700;50.996;7.044;2023-07-30T12:05:10;3.38;;;0.80;;
11287;SDS011;5700;50.996;7.044;2023-07-30T12:08:13;5.38;;;1.13;;
11287;SDS011;5700;50.996;7.044;2023-07-30T12:11:16;5.57;;;1.20;;
11287;SDS011;5700;50.996;7.044;2023-07-30T12:14:21;3.60;;;0.80;;
11287;SDS011;5700;50.996;7.044;2023-07-30T12:17:26;2.42;;;0.60;;
11287;SDS011;5700;50.996;7.044;2023-07-30T12:20:28;1.25;;;0.70;;
11287;SDS011;5700;50.996;7.044;2023-07-30T12:23:29;3.65;;;0.80;;
11287;SDS011;5700;50.996;7.044;2023-07-30T12:26:31;5.25;;;0.93;;
11287;SDS011;5700;50.996;7.044;2023-07-30T12:29:33;5.03;;;1.50;;
11287;SDS011;5700;50.996;7.044;2023-07-30T12:32:36;5.05;;;1.35;;
11287;SDS011;5700;50.996;7.044;2023-07-30T12:35:38;3.03;;;0.73;;
11287;SDS011;5700;50.996;7.044;2023-07-30T12:38:39;4.43;;;1.00;;
11287;SDS011;5700;50.996;7.044;2023-07-30T12:41:41;4.60;;;1.13;;
11287;SDS011;5700;50.996;7.044;2023-07-30T12:44:43;3.05;;;0.85;;
11287;SDS011;5700;50.996;7.044;2023-07-30T12:47:46;3.58;;;1.00;;
11287;SDS011;5700;50.996;7.044;2023-07-30T12:50:48;6.20;;;1.25;;
11287;SDS011;5700;50.996;7.044;2023-07-30T12:53:49;2.63;;;0.80;;
11287;SDS011;5700;50.996;7.044;2023-07-30T12:56:51;3.97;;;1.13;;
11287;SDS011;5700;50.996;7.044;2023-07-30T12:59:53;4.38;;;1.00;;
11287;SDS011;5700;50.996;7.044;2023-07-30T13:02:56;2.83;;;0.90;;
11287;SDS011;5700;50.996;7.044;2023-07-30T13:05:57;4.40;;;1.27;;
11287;SDS011;5700;50.996;7.044;2023-07-30T13:08:59;2.78;;;1.00;;
11287;SDS011;5700;50.996;7.044;2023-07-30T13:12:00;5.47;;;0.90;;
11287;SDS011;5700;50.996;7.044;2023-07-30T13:15:02;6.07;;;1.13;;
11287;SDS011;5700;50.996;7.044;2023-07-30T13:18:06;4.28;;;1.13;;
11287;SDS011;5700;50.996;7.044;2023-07-30T13:21:07;6.45;;;1.58;;
11287;SDS011;5700;50.996;7.044;2023-07-30T13:24:09;3.45;;;0.80;;
11287;SDS011;5700;50.996;7.044;2023-07-30T13:27:11;5.97;;;1.23;;
11287;SDS011;5700;50.996;7.044;2023-07-30T13:30:13;5.15;;;1.30;;
11287;SDS011;5700;50.996;7.044;2023-07-30T13:33:16;4.13;;;0.75;;
11287;SDS011;5700;50.996;7.044;2023-07-30T13:36:18;4.78;;;1.17;;
11287;SDS011;5700;50.996;7.044;2023-07-30T13:39:19;4.57;;;1.45;;
11287;SDS011;5700;50.996;7.044;2023-07-30T13:42:21;3.53;;;0.90;;
11287;SDS011;5700;50.996;7.044;2023-07-30T13:45:23;4.38;;;1.20;;
11287;SDS011;5700;50.996;7.044;2023-07-30T13:48:26;3.85;;;1.10;;
11287;SDS011;5700;50.996;7.044;2023-07-30T13:51:28;5.80;;;1.40;;
11287;SDS011;5700;50.996;7.044;2023-07-30T13:54:32;4.70;;;0.95;;
11287;SDS011;5700;50.996;7.044;2023-07-30T13:57:34;3.80;;;0.90;;
11287;SDS011;5700;50.996;7.044;2023-07-30T14:00:35;6.97;;;1.30;;
11287;SDS011;5700;50.996;7.044;2023-07-30T14:03:38;3.58;;;1.30;;
11287;SDS011;5700;50.996;7.044;2023-07-30T14:06:40;4.47;;;1.10;;
11287;SDS011;5700;50.996;7.044;2023-07-30T14:09:41;4.30;;;0.93;;
11287;SDS011;5700;50.996;7.044;2023-07-30T14:12:43;2.38;;;1.00;;
11287;SDS011;5700;50.996;7.044;2023-07-30T14:15:45;4.75;;;1.75;;
11287;SDS011;5700;50.996;7.044;2023-07-30T14:18:48;6.72;;;1.08;;
11287;SDS011;5700;50.996;7.044;2023-07-30T14:21:50;3.75;;;1.10;;
11287;SDS011;5700;50.996;7.044;2023-07-30T14:24:51;2.55;;;0.93;;
11287;SDS011;5700;50.996;7.044;2023-07-30T14:27:53;4.53;;;0.85;;
11287;SDS011;5700;50.996;7.044;2023-07-30T14:30:55;4.20;;;1.00;;
11287;SDS011;5700;50.996;7.044;2023-07-30T14:33:58;2.92;;;0.93;;
11287;SDS011;5700;50.996;7.044;2023-07-30T14:36:59;3.22;;;0.70;;
11287;SDS011;5700;50.996;7.044;2023-07-30T14:40:01;5.22;;;0.90;;
11287;SDS011;5700;50.996;7.044;2023-07-30T14:43:03;3.17;;;0.90;;
11287;SDS011;5700;50.996;7.044;2023-07-30T14:46:05;4.28;;;1.08;;
11287;SDS011;5700;50.996;7.044;2023-07-30T14:49:08;3.30;;;1.05;;
11287;SDS011;5700;50.996;7.044;2023-07-30T14:52:10;1.30;;;0.90;;
11287;SDS011;5700;50.996;7.044;2023-07-30T14:55:12;4.68;;;1.30;;
11287;SDS011;5700;50.996;7.044;2023-07-30T14:58:13;3.30;;;0.77;;
11287;SDS011;5700;50.996;7.044;2023-07-30T15:01:15;5.00;;;0.70;;
11287;SDS011;5700;50.996;7.044;2023-07-30T15:04:18;2.55;;;0.75;;
11287;SDS011;5700;50.996;7.044;2023-07-30T15:07:20;2.40;;;0.77;;
11287;SDS011;5700;50.996;7.044;2023-07-30T15:10:25;3.63;;;0.90;;
11287;SDS011;5700;50.996;7.044;2023-07-30T15:13:26;2.85;;;0.90;;
11287;SDS011;5700;50.996;7.044;2023-07-30T15:16:28;3.40;;;0.77;;
11287;SDS011;5700;50.996;7.044;2023-07-30T15:19:31;4.18;;;1.00;;
11287;SDS011;5700;50.996;7.044;2023-07-30T15:22:32;5.18;;;1.08;;
11287;SDS011;5700;50.996;7.044;2023-07-30T15:25:34;3.22;;;0.80;;
11287;SDS011;5700;50.996;7.044;2023-07-30T15:28:36;4.07;;;0.88;;
11287;SDS011;5700;50.996;7.044;2023-07-30T15:31:38;4.93;;;0.90;;
11287;SDS011;5700;50.996;7.044;2023-07-30T15:34:40;4.22;;;0.77;;
11287;SDS011;5700;50.996;7.044;2023-07-30T15:37:42;4.75;;;1.10;;
11287;SDS011;5700;50.996;7.044;2023-07-30T15:40:45;2.40;;;0.75;;
11287;SDS011;5700;50.996;7.044;2023-07-30T15:43:47;3.60;;;1.05;;
11287;SDS011;5700;50.996;7.044;2023-07-30T15:46:49;4.22;;;1.17;;
11287;SDS011;5700;50.996;7.044;2023-07-30T15:49:52;2.05;;;0.90;;
11287;SDS011;5700;50.996;7.044;2023-07-30T15:52:53;3.42;;;0.95;;
11287;SDS011;5700;50.996;7.044;2023-07-30T15:55:55;8.48;;;1.05;;
11287;SDS011;5700;50.996;7.044;2023-07-30T15:59:01;4.30;;;1.00;;
11287;SDS011;5700;50.996;7.044;2023-07-30T16:02:03;3.97;;;1.10;;
11287;SDS011;5700;50.996;7.044;2023-07-30T16:05:06;3.05;;;1.05;;
11287;SDS011;5700;50.996;7.044;2023-07-30T16:08:08;3.00;;;1.05;;
11287;SDS011;5700;50.996;7.044;2023-07-30T16:11:10;4.63;;;0.93;;
11287;SDS011;5700;50.996;7.044;2023-07-30T16:14:12;2.65;;;0.77;;
11287;SDS011;5700;50.996;7.044;2023-07-30T16:17:14;3.75;;;0.80;;
11287;SDS011;5700;50.996;7.044;2023-07-30T16:20:17;3.88;;;1.23;;
11287;SDS011;5700;50.996;7.044;2023-07-30T16:23:19;2.60;;;1.02;;
11287;SDS011;5700;50.996;7.044;2023-07-30T16:26:20;5.00;;;1.23;;
11287;SDS011;5700;50.996;7.044;2023-07-30T16:29:22;7.30;;;1.08;;
11287;SDS011;5700;50.996;7.044;2023-07-30T16:32:24;4.03;;;1.20;;
11287;SDS011;5700;50.996;7.044;2023-07-30T16:35:27;2.95;;;1.10;;
11287;SDS011;5700;50.996;7.044;2023-07-30T16:38:29;6.80;;;1.15;;
11287;SDS011;5700;50.996;7.044;2023-07-30T16:41:30;3.65;;;0.70;;
11287;SDS011;5700;50.996;7.044;2023-07-30T16:44:32;3.53;;;1.10;;
11287;SDS011;5700;50.996;7.044;2023-07-30T16:47:34;3.45;;;1.00;;
11287;SDS011;5700;50.996;7.044;2023-07-30T16:50:38;3.92;;;1.35;;
11287;SDS011;5700;50.996;7.044;2023-07-30T16:53:40;4.75;;;1.02;;
11287;SDS011;5700;50.996;7.044;2023-07-30T16:56:42;2.20;;;1.00;;
11287;SDS011;5700;50.996;7.044;2023-07-30T16:59:43;2.95;;;0.93;;
11287;SDS011;5700;50.996;7.044;2023-07-30T17:02:45;2.15;;;0.95;;
11287;SDS011;5700;50.996;7.044;2023-07-30T17:05:48;2.95;;;0.90;;
11287;SDS011;5700;50.996;7.044;2023-07-30T17:08:57;3.90;;;1.33;;
11287;SDS011;5700;50.996;7.044;2023-07-30T17:11:59;5.22;;;1.33;;
11287;SDS011;5700;50.996;7.044;2023-07-30T17:15:04;5.00;;;1.58;;
11287;SDS011;5700;50.996;7.044;2023-07-30T17:18:06;2.95;;;1.10;;
11287;SDS011;5700;50.996;7.044;2023-07-30T17:21:09;3.33;;;0.90;;
11287;SDS011;5700;50.996;7.044;2023-07-30T17:24:11;1.35;;;0.70;;
11287;SDS011;5700;50.996;7.044;2023-07-30T17:27:13;2.97;;;1.00;;
11287;SDS011;5700;50.996;7.044;2023-07-30T17:30:15;2.88;;;0.98;;
11287;SDS011;5700;50.996;7.044;2023-07-30T17:33:17;3.22;;;0.90;;
11287;SDS011;5700;50.996;7.044;2023-07-30T17:36:20;3.28;;;1.30;;
11287;SDS011;5700;50.996;7.044;2023-07-30T17:39:22;4.10;;;1.00;;
11287;SDS011;5700;50.996;7.044;2023-07-30T17:42:24;4.28;;;1.13;;
11287;SDS011;5700;50.996;7.044;2023-07-30T17:45:26;4.38;;;0.88;;
11287;SDS011;5700;50.996;7.044;2023-07-30T17:48:27;2.45;;;1.10;;
11287;SDS011;5700;50.996;7.044;2023-07-30T17:51:31;2.58;;;0.82;;
11287;SDS011;5700;50.996;7.044;2023-07-30T17:54:33;3.15;;;1.17;;
11287;SDS011;5700;50.996;7.044;2023-07-30T17:57:34;2.97;;;1.02;;
11287;SDS011;5700;50.996;7.044;2023-07-30T18:00:38;3.70;;;1.33;;
11287;SDS011;5700;50.996;7.044;2023-07-30T18:03:41;5.50;;;1.10;;
11287;SDS011;5700;50.996;7.044;2023-07-30T18:06:45;3.03;;;1.45;;
11287;SDS011;5700;50.996;7.044;2023-07-30T18:09:46;4.20;;;1.30;;
11287;SDS011;5700;50.996;7.044;2023-07-30T18:12:49;4.47;;;1.00;;
11287;SDS011;5700;50.996;7.044;2023-07-30T18:15:50;9.57;;;1.17;;
11287;SDS011;5700;50.996;7.044;2023-07-30T18:18:52;4.05;;;1.40;;
11287;SDS011;5700;50.996;7.044;2023-07-30T18:21:55;3.60;;;1.35;;
11287;SDS011;5700;50.996;7.044;2023-07-30T18:24:57;3.53;;;1.20;;
11287;SDS011;5700;50.996;7.044;2023-07-30T18:27:59;4.32;;;1.45;;
11287;SDS011;5700;50.996;7.044;2023-07-30T18:31:01;5.40;;;1.30;;
11287;SDS011;5700;50.996;7.044;2023-07-30T18:34:04;4.43;;;1.17;;
11287;SDS011;5700;50.996;7.044;2023-07-30T18:37:07;5.03;;;1.23;;